Akiachak, Alaska
Current Conditions -  °F | °C
As of 2:56 AM on Monday 22 Dec 2014 (Local Time) from PFKW Reporting Station
Clear Clear  
Wind Chill: -16°   Ceiling: Unl
Heat Index: -5°   Visibility: 10mi
Dew Point: -8°   Wind: 5mph
Humidity: 87%   Direction: 320°NW
Pressure: 29.77"   Gusts: NA
Location:  60.91°N, 161.44°W
Report Text: PFKW 221156Z AUTO 32004KT 10SM CLR M21/M22 A2977 RMK AO2 SLP082 T12061222 11189 21211 51024 FZRANO
Loading
Personal Weather Stations






























Interactive Weather Map New forecast layout! Learn more

10-Day Weather Forecast

Advertisements
Track Severe Weather on mobile